createdAt,value
2022-10-07T00:00:21.137Z,2.92
2022-10-07T00:03:06.917Z,3.47
2022-10-07T00:06:07.102Z,3.00
2022-10-07T00:08:53.899Z,3.70
2022-10-07T00:11:39.651Z,3.50
2022-10-07T00:14:25.166Z,3.35
2022-10-07T00:17:10.797Z,3.60
2022-10-07T00:19:58.211Z,3.47
2022-10-07T00:22:43.735Z,3.20
2022-10-07T00:25:29.186Z,3.30
2022-10-07T00:28:14.414Z,4.00
2022-10-07T00:31:01.793Z,3.20
2022-10-07T00:33:48.381Z,3.58
2022-10-07T00:36:35.889Z,3.95
2022-10-07T00:39:20.984Z,3.60
2022-10-07T00:42:06.551Z,3.75
2022-10-07T00:44:52.165Z,3.90
2022-10-07T00:47:38.003Z,3.00
2022-10-07T00:50:29.528Z,4.13
2022-10-07T00:53:14.981Z,3.47
2022-10-07T00:56:02.912Z,3.53
2022-10-07T00:58:50.357Z,3.60
2022-10-07T01:01:35.985Z,3.40
2022-10-07T01:04:21.361Z,3.35
2022-10-07T01:07:06.975Z,3.13
2022-10-07T01:09:54.503Z,3.40
2022-10-07T01:13:09.779Z,2.95
2022-10-07T01:16:17.665Z,3.22
2022-10-07T01:19:32.418Z,2.72
2022-10-07T01:22:38.003Z,2.78
2022-10-07T01:25:50.100Z,3.33
2022-10-07T01:29:01.274Z,3.03
2022-10-07T01:31:56.518Z,3.03
2022-10-07T01:34:43.750Z,3.15
2022-10-07T01:37:34.957Z,2.67
2022-10-07T01:40:25.367Z,2.90
2022-10-07T01:43:13.844Z,2.92
2022-10-07T01:45:59.740Z,2.70
2022-10-07T01:48:48.828Z,2.95
2022-10-07T01:51:37.559Z,3.10
2022-10-07T01:54:42.266Z,2.80
2022-10-07T01:57:35.107Z,2.70
2022-10-07T02:00:20.435Z,2.97
2022-10-07T02:03:21.861Z,2.88
2022-10-07T02:06:11.212Z,2.42
2022-10-07T02:08:57.586Z,2.97
2022-10-07T02:11:44.949Z,3.00
2022-10-07T02:14:39.144Z,3.03
2022-10-07T02:17:28.010Z,3.28
2022-10-07T02:20:16.202Z,2.70
2022-10-07T02:23:04.991Z,2.75
2022-10-07T02:25:52.464Z,3.10
2022-10-07T02:28:41.913Z,4.15
2022-10-07T02:31:31.526Z,4.95
2022-10-07T02:34:22.845Z,5.30
2022-10-07T02:37:19.557Z,5.72
2022-10-07T02:40:09.705Z,4.60
2022-10-07T02:43:04.166Z,8.32
2022-10-07T02:45:55.867Z,5.10
2022-10-07T02:48:47.483Z,4.13
2022-10-07T02:51:39.314Z,3.17
2022-10-07T02:54:51.883Z,3.03
2022-10-07T02:57:46.442Z,2.85
2022-10-07T03:00:36.824Z,2.90
2022-10-07T03:03:23.183Z,2.50
2022-10-07T03:06:08.627Z,2.63
2022-10-07T03:08:55.044Z,2.30
2022-10-07T03:11:40.723Z,2.75
2022-10-07T03:14:26.353Z,2.78
2022-10-07T03:17:11.608Z,2.30
2022-10-07T03:19:57.851Z,2.80
2022-10-07T03:22:43.704Z,2.78
2022-10-07T03:25:29.188Z,3.15
2022-10-07T03:28:15.019Z,2.60
2022-10-07T03:31:10.755Z,2.60
2022-10-07T03:33:56.943Z,2.40
2022-10-07T03:36:42.756Z,2.78
2022-10-07T03:39:28.146Z,2.88
2022-10-07T03:42:13.931Z,2.95
2022-10-07T03:44:59.398Z,3.08
2022-10-07T03:47:45.282Z,3.20
2022-10-07T03:50:31.188Z,4.20
2022-10-07T03:53:16.949Z,3.70
2022-10-07T03:56:02.268Z,3.35
2022-10-07T03:58:47.960Z,3.42
2022-10-07T04:01:33.712Z,4.00
2022-10-07T04:04:19.919Z,3.72
2022-10-07T04:07:05.282Z,3.95
2022-10-07T04:09:50.789Z,3.28
2022-10-07T04:12:36.265Z,4.28
2022-10-07T04:15:22.167Z,3.75
2022-10-07T04:18:07.343Z,4.15
2022-10-07T04:20:52.947Z,3.60
2022-10-07T04:23:41.018Z,3.60
2022-10-07T04:26:26.469Z,3.63
2022-10-07T04:29:11.803Z,3.90
2022-10-07T04:31:58.903Z,4.07
2022-10-07T04:34:44.494Z,4.45
2022-10-07T04:37:30.642Z,4.25
2022-10-07T04:40:16.810Z,4.07
2022-10-07T04:43:20.268Z,4.90
2022-10-07T04:46:07.022Z,4.28
2022-10-07T04:48:52.267Z,4.03
2022-10-07T04:51:37.722Z,4.22
2022-10-07T04:54:23.169Z,4.20
2022-10-07T04:57:10.128Z,4.00
2022-10-07T04:59:56.403Z,4.30
2022-10-07T05:02:41.745Z,4.00
2022-10-07T05:05:27.952Z,4.00
2022-10-07T05:08:15.151Z,3.78
2022-10-07T05:11:01.932Z,4.20
2022-10-07T05:13:47.519Z,3.60
2022-10-07T05:16:33.522Z,3.95
2022-10-07T05:19:20.088Z,4.03
2022-10-07T05:22:06.425Z,3.78
2022-10-07T05:24:51.821Z,3.88
2022-10-07T05:27:37.547Z,4.05
2022-10-07T05:30:22.935Z,3.55
2022-10-07T05:33:09.995Z,3.30
2022-10-07T05:35:55.617Z,3.47
2022-10-07T05:38:41.482Z,4.10
2022-10-07T05:41:29.915Z,3.83
2022-10-07T05:44:15.368Z,3.47
2022-10-07T05:47:01.954Z,3.50
2022-10-07T05:49:47.969Z,4.25
2022-10-07T05:52:33.533Z,4.05
2022-10-07T05:55:19.217Z,4.38
2022-10-07T05:58:06.292Z,3.78
2022-10-07T06:01:04.524Z,3.90
2022-10-07T06:03:53.222Z,3.63
2022-10-07T06:06:39.043Z,4.05
2022-10-07T06:09:42.761Z,3.60
2022-10-07T06:12:46.722Z,3.97
2022-10-07T06:15:32.328Z,3.83
2022-10-07T06:18:17.816Z,4.22
2022-10-07T06:21:03.918Z,3.70
2022-10-07T06:23:53.074Z,3.85
2022-10-07T06:26:38.731Z,4.07
2022-10-07T06:29:27.191Z,4.40
2022-10-07T06:32:12.718Z,4.03
2022-10-07T06:34:58.456Z,4.35
2022-10-07T06:37:43.845Z,4.00
2022-10-07T06:40:29.249Z,4.07
2022-10-07T06:43:14.679Z,4.50
2022-10-07T06:46:04.989Z,3.92
2022-10-07T06:48:51.486Z,4.65
2022-10-07T06:51:36.733Z,4.10
2022-10-07T06:54:22.341Z,4.00
2022-10-07T06:57:26.248Z,3.80
2022-10-07T07:00:14.270Z,4.18
2022-10-07T07:03:02.369Z,4.35
2022-10-07T07:05:49.720Z,4.05
2022-10-07T07:08:37.046Z,4.30
2022-10-07T07:11:37.876Z,4.70
2022-10-07T07:14:23.421Z,4.10
2022-10-07T07:17:09.316Z,4.00
2022-10-07T07:19:55.523Z,4.30
2022-10-07T07:22:41.894Z,3.60
2022-10-07T07:25:27.038Z,4.15
2022-10-07T07:28:15.298Z,4.10
2022-10-07T07:31:01.188Z,4.32
2022-10-07T07:33:52.373Z,4.45
2022-10-07T07:36:40.116Z,4.50
2022-10-07T07:39:25.522Z,4.38
2022-10-07T07:42:10.817Z,4.40
2022-10-07T07:44:59.102Z,4.82
2022-10-07T07:47:47.688Z,4.55
2022-10-07T07:50:33.995Z,5.35
2022-10-07T07:53:19.760Z,4.72
2022-10-07T07:56:05.477Z,4.50
2022-10-07T07:58:51.068Z,4.78
2022-10-07T08:01:36.449Z,5.20
2022-10-07T08:04:22.915Z,4.60
2022-10-07T08:07:08.860Z,4.68
2022-10-07T08:09:54.324Z,5.60
2022-10-07T08:12:40.316Z,5.30
2022-10-07T08:15:25.583Z,5.70
2022-10-07T08:18:11.148Z,6.53
2022-10-07T08:21:02.481Z,6.10
2022-10-07T08:23:48.311Z,6.22
2022-10-07T08:26:35.123Z,5.93
2022-10-07T08:29:21.261Z,6.55
2022-10-07T08:32:06.752Z,5.78
2022-10-07T08:34:52.319Z,6.18
2022-10-07T08:37:38.111Z,6.63
2022-10-07T08:40:23.471Z,7.25
2022-10-07T08:43:09.569Z,5.97
2022-10-07T08:45:56.044Z,6.32
2022-10-07T08:48:46.064Z,6.18
2022-10-07T08:51:40.701Z,5.90
2022-10-07T08:54:29.275Z,6.07
2022-10-07T08:57:40.146Z,5.85
2022-10-07T09:00:25.454Z,6.00
2022-10-07T09:03:54.600Z,5.68
2022-10-07T09:06:52.540Z,5.70
2022-10-07T09:09:51.593Z,6.22
2022-10-07T09:12:44.826Z,5.30
2022-10-07T09:15:30.428Z,6.05
2022-10-07T09:18:34.023Z,6.07
2022-10-07T09:21:25.464Z,6.00
2022-10-07T09:24:18.124Z,5.60
2022-10-07T09:27:12.886Z,5.43
2022-10-07T09:32:46.932Z,6.40
2022-10-07T09:35:32.412Z,6.13
2022-10-07T09:38:31.997Z,6.65
2022-10-07T09:41:32.259Z,6.38
2022-10-07T09:44:18.215Z,6.60
2022-10-07T09:47:19.846Z,6.57
2022-10-07T09:50:06.028Z,6.72
2022-10-07T09:52:55.967Z,6.57
2022-10-07T09:55:43.641Z,6.65
2022-10-07T09:58:31.411Z,6.53
2022-10-07T10:01:16.892Z,6.13
2022-10-07T10:04:02.704Z,6.65
2022-10-07T10:06:50.718Z,6.57
2022-10-07T10:09:36.331Z,6.45
2022-10-07T10:12:23.585Z,5.95
2022-10-07T10:15:38.988Z,6.55
2022-10-07T10:18:32.106Z,6.53
2022-10-07T10:21:30.649Z,7.13
2022-10-07T10:24:16.772Z,7.18
2022-10-07T10:27:30.298Z,6.72
2022-10-07T10:30:23.484Z,6.57
2022-10-07T10:33:29.215Z,6.70
2022-10-07T10:36:24.004Z,6.63
2022-10-07T10:42:09.316Z,6.97
2022-10-07T10:45:27.732Z,6.47
2022-10-07T10:48:38.107Z,6.80
2022-10-07T10:51:54.776Z,6.60
2022-10-07T10:54:43.290Z,6.13
2022-10-07T10:57:37.734Z,6.32
2022-10-07T11:00:24.143Z,5.75
2022-10-07T11:03:41.589Z,5.82
2022-10-07T11:06:29.007Z,6.45
2022-10-07T11:09:30.453Z,5.32
2022-10-07T11:12:30.577Z,6.28
2022-10-07T11:15:22.732Z,5.85
2022-10-07T11:18:21.836Z,4.75
2022-10-07T11:21:13.264Z,5.43
2022-10-07T11:24:13.723Z,5.30
2022-10-07T11:27:08.616Z,5.78
2022-10-07T11:30:00.627Z,4.90
2022-10-07T11:33:08.127Z,5.00
2022-10-07T11:36:03.907Z,7.03
2022-10-07T11:38:52.663Z,5.45
2022-10-07T11:42:08.141Z,5.25
2022-10-07T11:44:58.094Z,4.78
2022-10-07T11:47:58.374Z,4.60
2022-10-07T11:50:59.665Z,4.28
2022-10-07T11:53:45.229Z,4.47
2022-10-07T11:56:44.392Z,4.55
2022-10-07T11:59:58.088Z,5.22
2022-10-07T12:02:46.374Z,5.20
2022-10-07T12:05:35.518Z,5.05
2022-10-07T12:08:38.639Z,5.25
2022-10-07T12:11:24.676Z,4.63
2022-10-07T12:14:33.817Z,5.32
2022-10-07T12:17:22.883Z,5.20
2022-10-07T12:20:45.242Z,5.60
2022-10-07T12:23:31.074Z,4.90
2022-10-07T12:26:30.439Z,5.07
2022-10-07T12:29:22.397Z,4.80
2022-10-07T12:32:46.497Z,4.90
2022-10-07T12:35:34.891Z,5.05
2022-10-07T12:38:26.091Z,5.20
2022-10-07T12:41:11.550Z,5.53
2022-10-07T12:44:22.751Z,4.80
2022-10-07T12:47:24.875Z,4.88
2022-10-07T12:50:18.457Z,4.63
2022-10-07T12:53:04.206Z,6.00
2022-10-07T12:55:52.418Z,5.60
2022-10-07T12:59:47.083Z,6.07
2022-10-07T13:02:51.127Z,4.85
2022-10-07T13:06:24.121Z,5.90
2022-10-07T13:09:50.047Z,5.13
2022-10-07T13:12:40.105Z,4.25
2022-10-07T13:15:41.373Z,4.25
2022-10-07T13:18:40.459Z,3.83
2022-10-07T13:21:33.093Z,4.18
2022-10-07T13:24:24.439Z,4.32
2022-10-07T13:27:10.873Z,3.95
2022-10-07T13:29:58.189Z,4.38
2022-10-07T13:32:43.976Z,4.13
2022-10-07T13:35:34.096Z,4.03
2022-10-07T13:38:26.258Z,3.97
2022-10-07T13:41:26.211Z,4.20
2022-10-07T13:44:15.759Z,3.80
2022-10-07T13:47:04.521Z,4.82
2022-10-07T13:49:53.247Z,4.10
2022-10-07T13:52:47.058Z,4.57
2022-10-07T13:55:35.417Z,3.55
2022-10-07T13:58:20.920Z,3.90
2022-10-07T14:01:06.660Z,3.58
2022-10-07T14:04:12.031Z,4.00
2022-10-07T14:07:00.708Z,4.10
2022-10-07T14:09:47.918Z,3.97
2022-10-07T14:12:41.157Z,3.78
2022-10-07T14:15:29.326Z,3.70
2022-10-07T14:18:16.930Z,3.75
2022-10-07T14:21:10.790Z,3.30
2022-10-07T14:23:56.531Z,3.30
2022-10-07T14:26:43.825Z,3.25
2022-10-07T14:29:29.366Z,3.38
2022-10-07T14:32:39.588Z,3.50
2022-10-07T14:35:27.006Z,2.97
2022-10-07T14:38:39.692Z,3.10
2022-10-07T14:41:28.871Z,2.88
2022-10-07T14:44:15.516Z,2.80
2022-10-07T14:47:12.497Z,3.00
2022-10-07T14:50:01.731Z,3.28
2022-10-07T14:52:51.933Z,3.47
2022-10-07T14:55:39.273Z,3.03
2022-10-07T14:58:25.220Z,3.17
2022-10-07T15:01:10.840Z,3.28
2022-10-07T15:03:57.558Z,3.42
2022-10-07T15:06:46.323Z,3.08
2022-10-07T15:09:34.468Z,3.30
2022-10-07T15:12:19.877Z,3.00
2022-10-07T15:15:05.988Z,3.20
2022-10-07T15:17:51.433Z,3.42
2022-10-07T15:20:36.910Z,2.95
2022-10-07T15:23:22.320Z,3.60
2022-10-07T15:26:09.715Z,3.08
2022-10-07T15:28:58.202Z,3.20
2022-10-07T15:31:43.729Z,2.90
2022-10-07T15:34:29.067Z,3.15
2022-10-07T15:37:15.015Z,3.28
2022-10-07T15:40:00.544Z,3.33
2022-10-07T15:42:46.075Z,3.30
2022-10-07T15:45:31.419Z,3.30
2022-10-07T15:48:23.273Z,3.00
2022-10-07T15:51:08.877Z,3.15
2022-10-07T15:53:55.970Z,3.00
2022-10-07T15:56:42.814Z,3.20
2022-10-07T15:59:28.165Z,3.05
2022-10-07T16:02:15.969Z,3.13
2022-10-07T16:05:01.250Z,4.07
2022-10-07T16:07:46.706Z,3.45
2022-10-07T16:10:36.975Z,3.97
2022-10-07T16:13:23.135Z,3.80
2022-10-07T16:16:11.745Z,4.13
2022-10-07T16:18:58.564Z,3.25
2022-10-07T16:21:44.196Z,3.40
2022-10-07T16:24:34.805Z,3.30
2022-10-07T16:27:21.106Z,3.38
2022-10-07T16:30:25.550Z,3.45
2022-10-07T16:33:11.043Z,3.88
2022-10-07T16:35:56.646Z,3.80
2022-10-07T16:38:42.524Z,3.75
2022-10-07T16:41:28.083Z,3.95
2022-10-07T16:44:14.661Z,3.95
2022-10-07T16:47:00.849Z,4.20
2022-10-07T16:49:46.373Z,3.63
2022-10-07T16:52:31.849Z,3.67
2022-10-07T16:55:18.166Z,4.15
2022-10-07T16:58:03.712Z,4.30
2022-10-07T17:00:49.315Z,4.15
2022-10-07T17:03:35.179Z,4.50
2022-10-07T17:06:22.494Z,4.18
2022-10-07T17:09:07.748Z,4.93
2022-10-07T17:11:53.225Z,5.10
2022-10-07T17:14:38.944Z,4.80
2022-10-07T17:17:24.370Z,5.30
2022-10-07T17:20:10.264Z,5.15
2022-10-07T17:22:55.924Z,5.32
2022-10-07T17:25:46.248Z,5.40
2022-10-07T17:28:32.048Z,5.93
2022-10-07T17:31:18.318Z,6.50
2022-10-07T17:34:03.865Z,6.00
2022-10-07T17:36:50.179Z,6.00
2022-10-07T17:39:35.678Z,6.38
2022-10-07T17:42:20.946Z,6.18
2022-10-07T17:45:07.124Z,5.35
2022-10-07T17:47:54.492Z,5.90
2022-10-07T17:50:39.903Z,5.70
2022-10-07T17:53:25.334Z,5.55
2022-10-07T17:56:15.791Z,6.00
2022-10-07T17:59:02.051Z,6.65
2022-10-07T18:01:48.326Z,6.55
2022-10-07T18:04:33.927Z,7.07
2022-10-07T18:07:19.519Z,6.50
2022-10-07T18:10:05.176Z,7.32
2022-10-07T18:13:09.015Z,7.38
2022-10-07T18:15:59.776Z,7.60
2022-10-07T18:18:45.361Z,7.10
2022-10-07T18:21:31.802Z,7.32
2022-10-07T18:24:17.394Z,7.70
2022-10-07T18:27:03.068Z,7.22
2022-10-07T18:29:48.466Z,7.13
2022-10-07T18:32:34.023Z,7.82
2022-10-07T18:35:19.843Z,6.95
2022-10-07T18:38:05.323Z,6.53
2022-10-07T18:40:50.921Z,6.90
2022-10-07T18:43:36.815Z,7.10
2022-10-07T18:46:23.337Z,6.20
2022-10-07T18:49:09.411Z,7.25
2022-10-07T18:51:54.706Z,6.30
2022-10-07T18:54:40.336Z,7.13
2022-10-07T18:57:25.751Z,7.32
2022-10-07T19:00:11.639Z,6.50
2022-10-07T19:02:56.860Z,6.80
2022-10-07T19:05:42.800Z,7.10
2022-10-07T19:08:27.977Z,6.40
2022-10-07T19:11:16.280Z,6.80
2022-10-07T19:14:01.898Z,6.70
2022-10-07T19:16:49.752Z,7.20
2022-10-07T19:19:35.425Z,6.93
2022-10-07T19:22:21.227Z,7.97
2022-10-07T19:25:25.956Z,6.53
2022-10-07T19:28:11.515Z,6.40
2022-10-07T19:30:59.036Z,6.72
2022-10-07T19:33:46.327Z,7.68
2022-10-07T19:36:34.361Z,7.75
2022-10-07T19:39:22.673Z,7.85
2022-10-07T19:42:08.403Z,7.82
2022-10-07T19:44:53.866Z,9.55
2022-10-07T19:47:39.516Z,7.88
2022-10-07T19:50:25.158Z,8.02
2022-10-07T19:53:10.922Z,6.93
2022-10-07T19:55:59.299Z,8.27
2022-10-07T19:58:50.133Z,8.45
2022-10-07T20:01:39.497Z,8.18
2022-10-07T20:04:24.952Z,7.80
2022-10-07T20:07:11.954Z,6.97
2022-10-07T20:09:57.492Z,7.78
2022-10-07T20:12:43.444Z,7.97
2022-10-07T20:15:29.151Z,7.72
2022-10-07T20:18:14.678Z,7.88
2022-10-07T20:21:11.278Z,8.82
2022-10-07T20:23:57.066Z,8.60
2022-10-07T20:26:44.014Z,8.55
2022-10-07T20:29:31.103Z,9.35
2022-10-07T20:32:16.484Z,8.82
2022-10-07T20:35:05.249Z,9.15
2022-10-07T20:37:50.581Z,9.40
2022-10-07T20:40:54.695Z,9.85
2022-10-07T20:43:39.934Z,9.25
2022-10-07T20:46:25.713Z,8.93
2022-10-07T20:49:25.223Z,9.40
2022-10-07T20:52:14.025Z,10.00
2022-10-07T20:54:59.353Z,11.20
2022-10-07T20:57:45.635Z,12.48
2022-10-07T21:00:32.867Z,12.88
2022-10-07T21:03:18.588Z,12.75
2022-10-07T21:06:05.565Z,11.70
2022-10-07T21:08:54.414Z,12.20
2022-10-07T21:11:40.413Z,10.80
2022-10-07T21:14:25.988Z,12.23
2022-10-07T21:17:12.298Z,10.52
2022-10-07T21:19:57.425Z,13.20
2022-10-07T21:22:43.047Z,12.00
2022-10-07T21:25:28.524Z,10.43
2022-10-07T21:28:14.535Z,12.40
2022-10-07T21:31:02.702Z,9.95
2022-10-07T21:33:50.156Z,9.43
2022-10-07T21:36:40.685Z,8.90
2022-10-07T21:39:26.472Z,8.27
2022-10-07T21:42:12.028Z,8.27
2022-10-07T21:44:57.570Z,9.07
2022-10-07T21:47:43.046Z,9.35
2022-10-07T21:50:28.708Z,10.90
2022-10-07T21:53:14.261Z,9.88
2022-10-07T21:56:05.568Z,9.95
2022-10-07T21:58:53.071Z,10.25
2022-10-07T22:01:38.973Z,9.52
2022-10-07T22:04:25.037Z,9.25
2022-10-07T22:07:30.881Z,8.90
2022-10-07T22:13:01.393Z,8.70
2022-10-07T22:15:46.704Z,8.77
2022-10-07T22:18:36.304Z,8.75
2022-10-07T22:21:25.160Z,9.27
2022-10-07T22:24:10.994Z,8.73
2022-10-07T22:26:56.308Z,8.98
2022-10-07T22:29:41.941Z,9.25
2022-10-07T22:32:28.238Z,10.15
2022-10-07T22:35:30.112Z,9.00
2022-10-07T22:38:15.555Z,8.82
2022-10-07T22:41:10.782Z,8.98
2022-10-07T22:43:56.549Z,9.32
2022-10-07T22:46:42.308Z,9.85
2022-10-07T22:49:30.002Z,9.50
2022-10-07T22:52:16.135Z,9.73
2022-10-07T22:55:05.975Z,10.00
2022-10-07T22:57:51.950Z,9.60
2022-10-07T23:00:38.244Z,9.68
2022-10-07T23:03:24.447Z,10.13
2022-10-07T23:06:11.743Z,10.00
2022-10-07T23:08:57.323Z,9.65
2022-10-07T23:11:43.098Z,9.65
2022-10-07T23:14:28.706Z,8.90
2022-10-07T23:17:14.111Z,8.48
2022-10-07T23:19:59.642Z,9.20
2022-10-07T23:22:45.354Z,9.82
2022-10-07T23:25:31.479Z,9.65
2022-10-07T23:28:17.085Z,9.68
2022-10-07T23:31:10.932Z,9.43
2022-10-07T23:33:57.317Z,9.32
2022-10-07T23:36:42.737Z,10.05
2022-10-07T23:39:28.741Z,9.43
2022-10-07T23:42:14.302Z,10.77
2022-10-07T23:45:01.564Z,10.55
2022-10-07T23:47:47.107Z,11.15
2022-10-07T23:50:32.666Z,10.25
2022-10-07T23:53:19.727Z,11.95
2022-10-07T23:56:05.686Z,12.20
2022-10-07T23:58:50.991Z,12.07
